createdAt,value
2023-09-23T00:00:16.704Z,15.63
2023-09-23T00:05:04.225Z,16.30
2023-09-23T00:09:54.109Z,15.77
2023-09-23T00:14:41.216Z,15.75
2023-09-23T00:19:28.692Z,16.67
2023-09-23T00:24:16.501Z,16.13
2023-09-23T00:29:06.519Z,17.60
2023-09-23T00:33:53.726Z,17.48
2023-09-23T00:38:51.097Z,18.08
2023-09-23T00:48:28.397Z,17.17
2023-09-23T00:53:15.773Z,16.55
2023-09-23T00:58:03.812Z,17.35
2023-09-23T01:02:51.335Z,17.38
2023-09-23T01:07:43.753Z,16.70
2023-09-23T01:12:30.985Z,16.50
2023-09-23T01:17:18.512Z,15.77
2023-09-23T01:22:05.806Z,15.00
2023-09-23T01:26:55.682Z,15.38
2023-09-23T01:31:42.910Z,14.63
2023-09-23T01:36:30.203Z,15.85
2023-09-23T01:41:17.488Z,13.85
2023-09-23T01:46:07.324Z,15.45
2023-09-23T01:50:54.642Z,14.80
2023-09-23T01:55:41.911Z,15.52
2023-09-23T02:00:29.110Z,15.30
2023-09-23T02:05:18.944Z,13.95
2023-09-23T02:10:07.079Z,13.82
2023-09-23T02:14:54.261Z,14.20
2023-09-23T02:19:41.516Z,14.30
2023-09-23T02:24:31.330Z,15.20
2023-09-23T02:29:20.142Z,14.50
2023-09-23T02:34:10.405Z,14.05
2023-09-23T02:38:57.656Z,12.55
2023-09-23T02:43:47.536Z,11.50
2023-09-23T02:48:34.777Z,12.38
2023-09-23T02:53:21.931Z,11.40
2023-09-23T02:58:09.253Z,11.10
2023-09-23T03:03:00.308Z,10.63
2023-09-23T03:07:47.849Z,9.32
2023-09-23T03:12:35.053Z,9.13
2023-09-23T03:17:22.230Z,9.25
2023-09-23T03:22:12.092Z,8.70
2023-09-23T03:27:00.766Z,9.02
2023-09-23T03:31:48.545Z,8.18
2023-09-23T03:36:36.293Z,8.82
2023-09-23T03:41:26.180Z,8.68
2023-09-23T03:46:15.077Z,8.85
2023-09-23T03:51:02.415Z,9.90
2023-09-23T03:55:50.208Z,8.40
2023-09-23T04:00:40.175Z,7.97
2023-09-23T04:05:27.456Z,8.00
2023-09-23T04:10:14.771Z,7.75
2023-09-23T04:15:02.057Z,7.43
2023-09-23T04:19:53.191Z,7.38
2023-09-23T04:24:40.338Z,7.63
2023-09-23T04:29:27.555Z,7.80
2023-09-23T04:34:14.640Z,8.27
2023-09-23T04:39:04.608Z,7.57
2023-09-23T04:43:51.913Z,8.63
2023-09-23T04:48:39.232Z,8.60
2023-09-23T04:53:26.567Z,8.98
2023-09-23T04:58:16.504Z,10.13
2023-09-23T05:03:03.940Z,10.00
2023-09-23T05:07:51.568Z,9.63
2023-09-23T05:12:38.817Z,8.63
2023-09-23T05:17:28.667Z,8.43
2023-09-23T05:22:15.828Z,8.68
2023-09-23T05:27:03.042Z,9.63
2023-09-23T05:31:50.399Z,8.05
2023-09-23T05:36:40.225Z,8.38
2023-09-23T05:41:27.457Z,9.07
2023-09-23T05:46:14.764Z,7.78
2023-09-23T05:51:05.496Z,8.77
2023-09-23T05:55:55.234Z,8.07
2023-09-23T06:00:42.479Z,8.32
2023-09-23T06:05:35.912Z,8.68
2023-09-23T06:15:15.679Z,7.85
2023-09-23T06:20:03.236Z,8.80
2023-09-23T06:24:50.598Z,8.45
2023-09-23T06:29:37.756Z,8.70
2023-09-23T06:34:27.523Z,7.70
2023-09-23T06:39:14.703Z,6.63
2023-09-23T06:44:01.950Z,6.63
2023-09-23T06:48:49.216Z,7.68
2023-09-23T06:53:39.021Z,7.78
2023-09-23T06:58:26.253Z,7.28
2023-09-23T07:03:13.719Z,7.85
2023-09-23T07:08:01.106Z,8.18
2023-09-23T07:12:50.989Z,7.25
2023-09-23T07:17:38.498Z,7.40
2023-09-23T07:22:25.915Z,7.38
2023-09-23T07:27:13.126Z,7.13
2023-09-23T07:32:03.175Z,6.38
2023-09-23T07:36:50.507Z,5.90
2023-09-23T07:41:40.034Z,5.80
2023-09-23T07:46:27.412Z,5.63
2023-09-23T07:51:17.430Z,4.80
2023-09-23T07:56:07.391Z,6.00
2023-09-23T08:00:56.683Z,6.05
2023-09-23T08:05:45.369Z,5.60
2023-09-23T08:10:35.270Z,5.47
2023-09-23T08:15:26.145Z,5.38
2023-09-23T08:20:15.483Z,5.95
2023-09-23T08:25:03.278Z,5.78
2023-09-23T08:29:53.933Z,4.30
2023-09-23T08:34:41.320Z,4.88
2023-09-23T08:39:28.582Z,4.40
2023-09-23T08:44:21.820Z,3.60
2023-09-23T08:49:30.420Z,4.22
2023-09-23T08:54:20.108Z,4.10
2023-09-23T08:59:08.444Z,3.85
2023-09-23T09:03:55.587Z,3.40
2023-09-23T09:08:48.546Z,2.78
2023-09-23T09:13:37.883Z,2.60
2023-09-23T09:18:25.357Z,2.30
2023-09-23T09:23:13.359Z,2.05
2023-09-23T09:28:05.017Z,2.70
2023-09-23T09:32:55.981Z,2.80
2023-09-23T09:37:45.065Z,2.03
2023-09-23T09:42:32.437Z,2.28
2023-09-23T09:47:23.234Z,2.10
2023-09-23T09:52:10.631Z,2.25
2023-09-23T09:56:57.804Z,1.88
2023-09-23T10:01:45.005Z,2.28
2023-09-23T10:06:40.588Z,2.63
2023-09-23T10:11:31.562Z,2.90
2023-09-23T10:16:19.142Z,2.83
2023-09-23T10:21:06.740Z,3.10
2023-09-23T10:25:56.600Z,3.60
2023-09-23T10:30:44.729Z,3.50
2023-09-23T10:35:32.223Z,3.33
2023-09-23T10:40:20.303Z,3.30
2023-09-23T10:45:12.572Z,2.17
2023-09-23T10:50:00.234Z,2.40
2023-09-23T10:54:48.923Z,2.70
2023-09-23T10:59:37.101Z,2.83
2023-09-23T11:04:26.916Z,2.10
2023-09-23T11:09:14.062Z,2.00
2023-09-23T11:14:01.242Z,1.90
2023-09-23T11:18:49.223Z,1.45
2023-09-23T11:23:39.437Z,1.83
2023-09-23T11:28:27.390Z,1.98
2023-09-23T11:33:15.452Z,1.40
2023-09-23T11:38:02.772Z,1.20
2023-09-23T11:42:52.649Z,1.98
2023-09-23T11:47:42.041Z,2.58
2023-09-23T11:52:29.310Z,2.05
2023-09-23T11:57:16.417Z,2.42
2023-09-23T12:02:07.178Z,2.28
2023-09-23T12:07:07.935Z,2.55
2023-09-23T12:11:55.469Z,2.58
2023-09-23T12:16:44.396Z,2.28
2023-09-23T12:21:35.250Z,2.55
2023-09-23T12:26:22.608Z,2.25
2023-09-23T12:31:10.425Z,2.03
2023-09-23T12:36:06.326Z,3.10
2023-09-23T12:40:56.656Z,2.10
2023-09-23T12:45:51.186Z,2.30
2023-09-23T12:50:46.795Z,2.20
2023-09-23T12:55:34.216Z,2.38
2023-09-23T13:00:24.008Z,1.75
2023-09-23T13:05:17.013Z,1.60
2023-09-23T13:10:17.905Z,1.33
2023-09-23T13:15:09.886Z,2.08
2023-09-23T13:20:00.470Z,1.30
2023-09-23T13:24:47.764Z,1.75
2023-09-23T13:29:36.725Z,1.30
2023-09-23T13:35:03.554Z,1.48
2023-09-23T13:39:54.321Z,1.50
2023-09-23T13:44:43.799Z,1.60
2023-09-23T13:49:32.809Z,1.48
2023-09-23T13:54:20.184Z,1.75
2023-09-23T13:59:10.024Z,1.67
2023-09-23T14:03:57.317Z,1.58
2023-09-23T14:08:44.659Z,1.33
2023-09-23T14:13:32.038Z,1.70
2023-09-23T14:18:21.814Z,2.25
2023-09-23T14:23:10.604Z,1.70
2023-09-23T14:27:57.840Z,1.60
2023-09-23T14:32:45.280Z,1.77
2023-09-23T14:37:35.398Z,1.27
2023-09-23T14:42:22.665Z,2.40
2023-09-23T14:47:10.031Z,1.38
2023-09-23T14:51:57.262Z,1.23
2023-09-23T14:56:47.019Z,1.30
2023-09-23T15:01:34.288Z,1.20
2023-09-23T15:06:21.654Z,1.15
2023-09-23T15:11:08.914Z,1.17
2023-09-23T15:16:01.799Z,1.50
2023-09-23T15:20:49.187Z,1.23
2023-09-23T15:25:36.530Z,1.10
2023-09-23T15:30:23.730Z,0.93
2023-09-23T15:35:13.622Z,1.15
2023-09-23T15:40:00.922Z,1.08
2023-09-23T15:44:48.063Z,1.30
2023-09-23T15:49:43.901Z,1.13
2023-09-23T15:54:34.314Z,0.90
2023-09-23T15:59:21.456Z,0.95
2023-09-23T16:04:08.706Z,1.33
2023-09-23T16:08:55.948Z,1.08
2023-09-23T16:13:45.785Z,0.95
2023-09-23T16:18:33.189Z,1.10
2023-09-23T16:23:20.436Z,1.17
2023-09-23T16:28:07.529Z,0.90
2023-09-23T16:32:57.521Z,1.10
2023-09-23T16:37:44.604Z,0.95
2023-09-23T16:42:31.827Z,1.00
2023-09-23T16:47:19.043Z,0.93
2023-09-23T16:52:08.984Z,0.82
2023-09-23T16:56:56.175Z,0.75
2023-09-23T17:01:52.634Z,0.82
2023-09-23T17:06:39.762Z,0.98
2023-09-23T17:11:29.692Z,1.00
2023-09-23T17:16:16.950Z,1.00
2023-09-23T17:21:04.287Z,0.90
2023-09-23T17:25:51.679Z,1.30
2023-09-23T17:30:41.495Z,1.67
2023-09-23T17:35:28.750Z,1.17
2023-09-23T17:40:16.600Z,1.10
2023-09-23T17:45:04.506Z,1.10
2023-09-23T17:49:54.398Z,1.00
2023-09-23T17:54:41.489Z,1.00
2023-09-23T17:59:31.347Z,1.67
2023-09-23T18:04:18.566Z,1.50
2023-09-23T18:09:10.155Z,2.20
2023-09-23T18:13:57.280Z,1.30
2023-09-23T18:18:46.664Z,1.30
2023-09-23T18:23:36.525Z,1.60
2023-09-23T18:28:26.812Z,1.77
2023-09-23T18:33:15.245Z,1.70
2023-09-23T18:38:02.452Z,1.63
2023-09-23T18:42:49.716Z,1.38
2023-09-23T18:47:40.828Z,1.35
2023-09-23T18:52:28.223Z,1.65
2023-09-23T18:57:15.720Z,1.10
2023-09-23T19:02:03.284Z,1.52
2023-09-23T19:06:53.773Z,2.35
2023-09-23T19:11:40.977Z,1.67
2023-09-23T19:16:28.418Z,1.95
2023-09-23T19:21:15.759Z,1.83
2023-09-23T19:26:05.774Z,1.40
2023-09-23T19:30:55.611Z,1.48
2023-09-23T19:35:43.077Z,1.52
2023-09-23T19:40:30.463Z,1.65
2023-09-23T19:45:20.511Z,1.67
2023-09-23T19:50:11.188Z,1.60
2023-09-23T19:54:58.596Z,1.85
2023-09-23T19:59:46.310Z,2.10
2023-09-23T20:04:37.732Z,2.55
2023-09-23T20:09:24.911Z,2.05
2023-09-23T20:14:13.503Z,2.70
2023-09-23T20:19:01.130Z,2.40
2023-09-23T20:23:51.944Z,2.60
2023-09-23T20:28:39.983Z,2.05
2023-09-23T20:33:28.048Z,2.70
2023-09-23T20:38:15.283Z,3.05
2023-09-23T20:43:05.508Z,2.88
2023-09-23T20:47:55.873Z,2.38
2023-09-23T20:52:43.433Z,2.53
2023-09-23T20:57:33.167Z,2.80
2023-09-23T21:02:23.100Z,3.05
2023-09-23T21:07:10.822Z,2.80
2023-09-23T21:11:58.011Z,2.67
2023-09-23T21:16:45.212Z,2.67
2023-09-23T21:21:35.083Z,2.92
2023-09-23T21:26:22.662Z,3.15
2023-09-23T21:31:12.278Z,2.72
2023-09-23T21:35:59.537Z,2.38
2023-09-23T21:40:49.401Z,2.85
2023-09-23T21:45:36.762Z,3.22
2023-09-23T21:50:24.169Z,4.00
2023-09-23T21:55:11.650Z,3.15
2023-09-23T22:00:01.608Z,2.88
2023-09-23T22:04:48.856Z,3.55
2023-09-23T22:09:36.101Z,3.30
2023-09-23T22:14:23.270Z,2.88
2023-09-23T22:19:13.177Z,3.67
2023-09-23T22:24:00.508Z,3.75
2023-09-23T22:28:47.835Z,3.17
2023-09-23T22:33:35.127Z,4.25
2023-09-23T22:38:24.875Z,4.07
2023-09-23T22:43:12.006Z,4.30
2023-09-23T22:47:59.281Z,5.10
2023-09-23T22:52:46.518Z,5.32
2023-09-23T22:57:38.009Z,5.13
2023-09-23T23:02:25.291Z,4.18
2023-09-23T23:07:12.509Z,4.75
2023-09-23T23:12:00.015Z,4.43
2023-09-23T23:16:50.238Z,5.68
2023-09-23T23:21:37.488Z,3.90
2023-09-23T23:26:24.821Z,4.10
2023-09-23T23:31:12.366Z,3.70
2023-09-23T23:36:04.323Z,4.60
2023-09-23T23:40:52.171Z,4.15
2023-09-23T23:45:39.336Z,4.47
2023-09-23T23:50:27.108Z,4.30
2023-09-23T23:55:17.156Z,4.38
